sensor_id;sensor_type;location;lat;lon;timestamp;temperature;humidity
5134;DHT22;2585;48.696;10.066;2023-04-03T00:00:50;1.80;77.20
5134;DHT22;2585;48.696;10.066;2023-04-03T00:03:18;1.80;83.80
5134;DHT22;2585;48.696;10.066;2023-04-03T00:05:45;1.80;94.00
5134;DHT22;2585;48.696;10.066;2023-04-03T00:08:13;1.80;1.00
5134;DHT22;2585;48.696;10.066;2023-04-03T00:10:40;1.70;1.00
5134;DHT22;2585;48.696;10.066;2023-04-03T00:13:07;1.80;89.00
5134;DHT22;2585;48.696;10.066;2023-04-03T00:15:35;1.70;82.10
5134;DHT22;2585;48.696;10.066;2023-04-03T00:18:03;1.70;93.30
5134;DHT22;2585;48.696;10.066;2023-04-03T00:20:30;1.70;1.00
5134;DHT22;2585;48.696;10.066;2023-04-03T00:22:57;1.70;1.00
5134;DHT22;2585;48.696;10.066;2023-04-03T00:25:24;1.70;1.00
5134;DHT22;2585;48.696;10.066;2023-04-03T00:27:51;1.70;1.00
5134;DHT22;2585;48.696;10.066;2023-04-03T00:30:20;1.70;1.00
5134;DHT22;2585;48.696;10.066;2023-04-03T00:32:48;1.70;37.70
5134;DHT22;2585;48.696;10.066;2023-04-03T00:35:16;1.70;1.00
5134;DHT22;2585;48.696;10.066;2023-04-03T00:37:43;1.70;59.50
5134;DHT22;2585;48.696;10.066;2023-04-03T00:40:12;1.70;76.10
5134;DHT22;2585;48.696;10.066;2023-04-03T00:42:40;1.70;75.10
5134;DHT22;2585;48.696;10.066;2023-04-03T00:47:39;1.80;1.00
5134;DHT22;2585;48.696;10.066;2023-04-03T00:50:07;1.80;1.00
5134;DHT22;2585;48.696;10.066;2023-04-03T00:52:34;1.80;1.00
5134;DHT22;2585;48.696;10.066;2023-04-03T00:55:06;1.80;1.00
5134;DHT22;2585;48.696;10.066;2023-04-03T00:57:34;1.80;1.00
5134;DHT22;2585;48.696;10.066;2023-04-03T01:00:05;1.80;4.10
5134;DHT22;2585;48.696;10.066;2023-04-03T01:02:33;1.80;1.00
5134;DHT22;2585;48.696;10.066;2023-04-03T01:05:00;1.80;1.00
5134;DHT22;2585;48.696;10.066;2023-04-03T01:07:29;1.80;1.00
5134;DHT22;2585;48.696;10.066;2023-04-03T01:09:59;1.80;82.30
5134;DHT22;2585;48.696;10.066;2023-04-03T01:12:32;1.70;72.40
5134;DHT22;2585;48.696;10.066;2023-04-03T01:15:06;1.70;1.00
5134;DHT22;2585;48.696;10.066;2023-04-03T01:17:43;1.70;1.00
5134;DHT22;2585;48.696;10.066;2023-04-03T01:25:42;1.70;1.00
5134;DHT22;2585;48.696;10.066;2023-04-03T01:28:16;1.70;13.20
5134;DHT22;2585;48.696;10.066;2023-04-03T01:33:16;1.70;1.00
5134;DHT22;2585;48.696;10.066;2023-04-03T01:35:42;1.70;1.00
5134;DHT22;2585;48.696;10.066;2023-04-03T01:38:09;1.70;18.10
5134;DHT22;2585;48.696;10.066;2023-04-03T01:40:37;1.70;84.10
5134;DHT22;2585;48.696;10.066;2023-04-03T01:43:04;1.70;94.20
5134;DHT22;2585;48.696;10.066;2023-04-03T01:45:31;1.70;1.00
5134;DHT22;2585;48.696;10.066;2023-04-03T01:47:57;1.80;1.00
5134;DHT22;2585;48.696;10.066;2023-04-03T01:50:24;1.80;62.60
5134;DHT22;2585;48.696;10.066;2023-04-03T01:52:51;1.70;57.60
5134;DHT22;2585;48.696;10.066;2023-04-03T01:55:18;1.70;70.50
5134;DHT22;2585;48.696;10.066;2023-04-03T01:57:45;1.80;87.60
5134;DHT22;2585;48.696;10.066;2023-04-03T02:00:12;1.70;92.10
5134;DHT22;2585;48.696;10.066;2023-04-03T02:02:39;1.70;71.90
5134;DHT22;2585;48.696;10.066;2023-04-03T02:05:06;1.70;81.80
5134;DHT22;2585;48.696;10.066;2023-04-03T02:07:33;1.70;49.30
5134;DHT22;2585;48.696;10.066;2023-04-03T02:10:00;1.70;62.70
5134;DHT22;2585;48.696;10.066;2023-04-03T02:12:27;1.70;1.00
5134;DHT22;2585;48.696;10.066;2023-04-03T02:14:53;1.70;92.40
5134;DHT22;2585;48.696;10.066;2023-04-03T02:17:20;1.70;81.10
5134;DHT22;2585;48.696;10.066;2023-04-03T02:19:47;1.70;62.50
5134;DHT22;2585;48.696;10.066;2023-04-03T02:22:14;1.70;42.60
5134;DHT22;2585;48.696;10.066;2023-04-03T02:24:41;1.70;1.00
5134;DHT22;2585;48.696;10.066;2023-04-03T02:27:08;1.70;1.00
5134;DHT22;2585;48.696;10.066;2023-04-03T02:29:35;1.70;1.00
5134;DHT22;2585;48.696;10.066;2023-04-03T02:32:02;1.70;10.90
5134;DHT22;2585;48.696;10.066;2023-04-03T02:34:28;1.70;1.00
5134;DHT22;2585;48.696;10.066;2023-04-03T02:36:55;1.70;18.50
5134;DHT22;2585;48.696;10.066;2023-04-03T02:39:22;1.70;1.00
5134;DHT22;2585;48.696;10.066;2023-04-03T02:41:49;1.70;1.00
5134;DHT22;2585;48.696;10.066;2023-04-03T02:44:16;1.60;1.00
5134;DHT22;2585;48.696;10.066;2023-04-03T02:46:42;1.70;93.40
5134;DHT22;2585;48.696;10.066;2023-04-03T02:49:09;1.60;93.50
5134;DHT22;2585;48.696;10.066;2023-04-03T02:51:36;1.70;1.00
5134;DHT22;2585;48.696;10.066;2023-04-03T02:54:03;1.60;76.90
5134;DHT22;2585;48.696;10.066;2023-04-03T02:56:29;1.60;43.80
5134;DHT22;2585;48.696;10.066;2023-04-03T02:58:56;1.50;1.00
5134;DHT22;2585;48.696;10.066;2023-04-03T03:01:23;1.50;28.30
5134;DHT22;2585;48.696;10.066;2023-04-03T03:03:50;1.50;1.00
5134;DHT22;2585;48.696;10.066;2023-04-03T03:06:17;1.50;69.90
5134;DHT22;2585;48.696;10.066;2023-04-03T03:08:44;1.50;93.00
5134;DHT22;2585;48.696;10.066;2023-04-03T03:11:11;1.60;94.40
5134;DHT22;2585;48.696;10.066;2023-04-03T03:13:38;1.60;1.00
5134;DHT22;2585;48.696;10.066;2023-04-03T03:16:05;1.60;42.10
5134;DHT22;2585;48.696;10.066;2023-04-03T03:18:32;1.60;61.40
5134;DHT22;2585;48.696;10.066;2023-04-03T03:21:01;1.60;73.60
5134;DHT22;2585;48.696;10.066;2023-04-03T03:23:29;1.60;63.10
5134;DHT22;2585;48.696;10.066;2023-04-03T03:26:04;1.50;1.00
5134;DHT22;2585;48.696;10.066;2023-04-03T03:28:32;1.50;1.00
5134;DHT22;2585;48.696;10.066;2023-04-03T03:30:59;1.50;1.00
5134;DHT22;2585;48.696;10.066;2023-04-03T03:33:27;1.50;24.60
5134;DHT22;2585;48.696;10.066;2023-04-03T03:35:54;1.50;81.90
5134;DHT22;2585;48.696;10.066;2023-04-03T03:38:21;1.50;91.90
5134;DHT22;2585;48.696;10.066;2023-04-03T03:40:49;1.50;83.20
5134;DHT22;2585;48.696;10.066;2023-04-03T03:43:16;1.50;91.70
5134;DHT22;2585;48.696;10.066;2023-04-03T03:45:44;1.50;52.00
5134;DHT22;2585;48.696;10.066;2023-04-03T03:48:12;1.50;79.70
5134;DHT22;2585;48.696;10.066;2023-04-03T03:50:38;1.50;91.00
5134;DHT22;2585;48.696;10.066;2023-04-03T03:53:05;1.50;74.60
5134;DHT22;2585;48.696;10.066;2023-04-03T03:55:32;1.50;1.00
5134;DHT22;2585;48.696;10.066;2023-04-03T03:57:59;1.50;16.50
5134;DHT22;2585;48.696;10.066;2023-04-03T04:00:27;1.50;1.00
5134;DHT22;2585;48.696;10.066;2023-04-03T04:02:54;1.50;30.90
5134;DHT22;2585;48.696;10.066;2023-04-03T04:05:24;1.50;19.50
5134;DHT22;2585;48.696;10.066;2023-04-03T04:07:51;1.50;1.00
5134;DHT22;2585;48.696;10.066;2023-04-03T04:10:18;1.40;1.00
5134;DHT22;2585;48.696;10.066;2023-04-03T04:12:45;1.40;1.00
5134;DHT22;2585;48.696;10.066;2023-04-03T04:15:11;1.40;1.00
5134;DHT22;2585;48.696;10.066;2023-04-03T04:17:39;1.40;1.00
5134;DHT22;2585;48.696;10.066;2023-04-03T04:20:06;1.40;1.00
5134;DHT22;2585;48.696;10.066;2023-04-03T04:22:33;1.40;1.00
5134;DHT22;2585;48.696;10.066;2023-04-03T04:25:00;1.40;1.00
5134;DHT22;2585;48.696;10.066;2023-04-03T04:27:26;1.40;1.00
5134;DHT22;2585;48.696;10.066;2023-04-03T04:29:53;1.40;90.20
5134;DHT22;2585;48.696;10.066;2023-04-03T04:32:20;1.30;82.40
5134;DHT22;2585;48.696;10.066;2023-04-03T04:34:47;1.30;82.10
5134;DHT22;2585;48.696;10.066;2023-04-03T04:37:13;1.30;88.60
5134;DHT22;2585;48.696;10.066;2023-04-03T04:39:40;1.30;78.10
5134;DHT22;2585;48.696;10.066;2023-04-03T04:42:07;1.30;63.40
5134;DHT22;2585;48.696;10.066;2023-04-03T04:44:42;1.30;71.70
5134;DHT22;2585;48.696;10.066;2023-04-03T04:47:08;1.20;72.30
5134;DHT22;2585;48.696;10.066;2023-04-03T04:49:35;1.20;78.50
5134;DHT22;2585;48.696;10.066;2023-04-03T04:52:02;1.10;91.10
5134;DHT22;2585;48.696;10.066;2023-04-03T04:54:29;1.10;1.00
5134;DHT22;2585;48.696;10.066;2023-04-03T04:56:56;1.10;1.00
5134;DHT22;2585;48.696;10.066;2023-04-03T04:59:23;1.10;1.00
5134;DHT22;2585;48.696;10.066;2023-04-03T05:01:50;1.10;1.00
5134;DHT22;2585;48.696;10.066;2023-04-03T05:04:16;1.00;33.70
5134;DHT22;2585;48.696;10.066;2023-04-03T05:06:43;1.00;85.20
5134;DHT22;2585;48.696;10.066;2023-04-03T05:09:10;1.00;73.30
5134;DHT22;2585;48.696;10.066;2023-04-03T05:11:37;1.00;92.10
5134;DHT22;2585;48.696;10.066;2023-04-03T05:14:03;1.00;84.20
5134;DHT22;2585;48.696;10.066;2023-04-03T05:16:33;1.00;1.00
5134;DHT22;2585;48.696;10.066;2023-04-03T05:19:00;1.00;1.00
5134;DHT22;2585;48.696;10.066;2023-04-03T05:21:27;1.00;1.00
5134;DHT22;2585;48.696;10.066;2023-04-03T05:23:59;1.00;1.00
5134;DHT22;2585;48.696;10.066;2023-04-03T05:26:30;1.00;1.00
5134;DHT22;2585;48.696;10.066;2023-04-03T05:28:57;1.00;1.00
5134;DHT22;2585;48.696;10.066;2023-04-03T05:31:24;1.00;1.00
5134;DHT22;2585;48.696;10.066;2023-04-03T05:33:51;1.00;1.00
5134;DHT22;2585;48.696;10.066;2023-04-03T05:36:18;1.00;1.00
5134;DHT22;2585;48.696;10.066;2023-04-03T05:38:45;1.00;1.00
5134;DHT22;2585;48.696;10.066;2023-04-03T05:41:12;1.00;1.00
5134;DHT22;2585;48.696;10.066;2023-04-03T05:43:39;1.10;1.00
5134;DHT22;2585;48.696;10.066;2023-04-03T05:46:14;1.10;1.00
5134;DHT22;2585;48.696;10.066;2023-04-03T05:48:42;1.10;1.00
5134;DHT22;2585;48.696;10.066;2023-04-03T05:51:22;1.10;1.00
5134;DHT22;2585;48.696;10.066;2023-04-03T05:53:52;1.10;63.60
5134;DHT22;2585;48.696;10.066;2023-04-03T05:56:21;1.10;1.00
5134;DHT22;2585;48.696;10.066;2023-04-03T05:58:48;1.20;1.00
5134;DHT22;2585;48.696;10.066;2023-04-03T06:01:15;1.20;1.00
5134;DHT22;2585;48.696;10.066;2023-04-03T06:03:42;1.30;1.00
5134;DHT22;2585;48.696;10.066;2023-04-03T06:06:13;1.30;1.00
5134;DHT22;2585;48.696;10.066;2023-04-03T06:08:40;1.30;1.00
5134;DHT22;2585;48.696;10.066;2023-04-03T06:11:07;1.30;52.00
5134;DHT22;2585;48.696;10.066;2023-04-03T06:13:35;1.40;23.50
5134;DHT22;2585;48.696;10.066;2023-04-03T06:16:01;1.40;1.00
5134;DHT22;2585;48.696;10.066;2023-04-03T06:18:29;1.40;1.00
5134;DHT22;2585;48.696;10.066;2023-04-03T06:20:56;1.40;92.90
5134;DHT22;2585;48.696;10.066;2023-04-03T06:23:24;1.50;89.90
5134;DHT22;2585;48.696;10.066;2023-04-03T06:25:51;1.50;79.90
5134;DHT22;2585;48.696;10.066;2023-04-03T06:28:18;1.60;85.90
5134;DHT22;2585;48.696;10.066;2023-04-03T06:30:45;1.70;84.30
5134;DHT22;2585;48.696;10.066;2023-04-03T06:33:12;1.80;1.00
5134;DHT22;2585;48.696;10.066;2023-04-03T06:35:39;1.80;91.30
5134;DHT22;2585;48.696;10.066;2023-04-03T06:38:06;1.80;93.50
5134;DHT22;2585;48.696;10.066;2023-04-03T06:40:36;1.90;1.00
5134;DHT22;2585;48.696;10.066;2023-04-03T06:43:03;1.90;42.30
5134;DHT22;2585;48.696;10.066;2023-04-03T06:45:30;1.90;27.00
5134;DHT22;2585;48.696;10.066;2023-04-03T06:47:57;2.00;62.50
5134;DHT22;2585;48.696;10.066;2023-04-03T06:50:24;2.10;63.90
5134;DHT22;2585;48.696;10.066;2023-04-03T06:52:50;2.10;1.00
5134;DHT22;2585;48.696;10.066;2023-04-03T06:55:17;2.10;1.00
5134;DHT22;2585;48.696;10.066;2023-04-03T06:57:44;2.20;1.00
5134;DHT22;2585;48.696;10.066;2023-04-03T07:00:12;2.30;1.00
5134;DHT22;2585;48.696;10.066;2023-04-03T07:02:39;2.40;1.00
5134;DHT22;2585;48.696;10.066;2023-04-03T07:05:07;2.50;1.00
5134;DHT22;2585;48.696;10.066;2023-04-03T07:07:35;2.50;91.40
5134;DHT22;2585;48.696;10.066;2023-04-03T07:10:02;2.60;1.00
5134;DHT22;2585;48.696;10.066;2023-04-03T07:12:29;2.60;81.10
5134;DHT22;2585;48.696;10.066;2023-04-03T07:14:56;2.90;60.20
5134;DHT22;2585;48.696;10.066;2023-04-03T07:17:22;2.90;53.50
5134;DHT22;2585;48.696;10.066;2023-04-03T07:19:49;3.00;57.20
5134;DHT22;2585;48.696;10.066;2023-04-03T07:22:16;3.00;38.50
5134;DHT22;2585;48.696;10.066;2023-04-03T07:24:43;3.00;12.50
5134;DHT22;2585;48.696;10.066;2023-04-03T07:27:10;3.10;61.90
5134;DHT22;2585;48.696;10.066;2023-04-03T07:29:39;3.10;50.70
5134;DHT22;2585;48.696;10.066;2023-04-03T07:32:06;3.20;62.70
5134;DHT22;2585;48.696;10.066;2023-04-03T07:34:33;3.20;14.50
5134;DHT22;2585;48.696;10.066;2023-04-03T07:37:00;3.00;1.00
5134;DHT22;2585;48.696;10.066;2023-04-03T07:39:27;2.90;1.00
5134;DHT22;2585;48.696;10.066;2023-04-03T07:41:55;3.00;1.00
5134;DHT22;2585;48.696;10.066;2023-04-03T07:44:25;3.10;1.00
5134;DHT22;2585;48.696;10.066;2023-04-03T07:46:52;3.20;1.00
5134;DHT22;2585;48.696;10.066;2023-04-03T07:49:18;3.20;1.00
5134;DHT22;2585;48.696;10.066;2023-04-03T07:51:45;3.30;60.50
5134;DHT22;2585;48.696;10.066;2023-04-03T07:54:13;3.30;1.00
5134;DHT22;2585;48.696;10.066;2023-04-03T07:56:39;3.40;1.00
5134;DHT22;2585;48.696;10.066;2023-04-03T07:59:06;3.30;1.00
5134;DHT22;2585;48.696;10.066;2023-04-03T08:01:33;3.50;3.90
5134;DHT22;2585;48.696;10.066;2023-04-03T08:04:00;3.50;1.00
5134;DHT22;2585;48.696;10.066;2023-04-03T08:06:28;3.60;1.00
5134;DHT22;2585;48.696;10.066;2023-04-03T08:09:11;3.60;1.00
5134;DHT22;2585;48.696;10.066;2023-04-03T08:11:39;3.50;1.00
5134;DHT22;2585;48.696;10.066;2023-04-03T08:14:06;3.50;1.00
5134;DHT22;2585;48.696;10.066;2023-04-03T08:16:33;3.70;1.00
5134;DHT22;2585;48.696;10.066;2023-04-03T08:19:00;3.70;1.00
5134;DHT22;2585;48.696;10.066;2023-04-03T08:21:28;3.50;89.20
5134;DHT22;2585;48.696;10.066;2023-04-03T08:23:55;3.40;1.00
5134;DHT22;2585;48.696;10.066;2023-04-03T08:26:22;3.60;1.00
5134;DHT22;2585;48.696;10.066;2023-04-03T08:28:49;3.70;84.10
5134;DHT22;2585;48.696;10.066;2023-04-03T08:31:18;3.60;83.50
5134;DHT22;2585;48.696;10.066;2023-04-03T08:33:47;3.70;88.60
5134;DHT22;2585;48.696;10.066;2023-04-03T08:36:22;3.80;87.40
5134;DHT22;2585;48.696;10.066;2023-04-03T08:38:50;3.80;84.20
5134;DHT22;2585;48.696;10.066;2023-04-03T08:47:25;4.30;79.30
5134;DHT22;2585;48.696;10.066;2023-04-03T08:50:07;4.20;1.00
5134;DHT22;2585;48.696;10.066;2023-04-03T08:52:49;4.10;1.00
5134;DHT22;2585;48.696;10.066;2023-04-03T08:55:28;4.30;1.00
5134;DHT22;2585;48.696;10.066;2023-04-03T08:58:09;4.40;1.00
5134;DHT22;2585;48.696;10.066;2023-04-03T09:01:03;4.50;1.00
5134;DHT22;2585;48.696;10.066;2023-04-03T09:03:38;4.50;1.00
5134;DHT22;2585;48.696;10.066;2023-04-03T09:06:25;4.50;1.00
5134;DHT22;2585;48.696;10.066;2023-04-03T09:11:40;4.60;1.00
5134;DHT22;2585;48.696;10.066;2023-04-03T09:14:30;4.40;1.00
5134;DHT22;2585;48.696;10.066;2023-04-03T09:17:06;4.40;1.00
5134;DHT22;2585;48.696;10.066;2023-04-03T09:19:54;4.50;1.00
5134;DHT22;2585;48.696;10.066;2023-04-03T09:22:28;4.30;83.60
5134;DHT22;2585;48.696;10.066;2023-04-03T09:27:28;4.20;80.40
5134;DHT22;2585;48.696;10.066;2023-04-03T09:29:56;4.30;76.00
5134;DHT22;2585;48.696;10.066;2023-04-03T09:32:32;4.40;80.50
5134;DHT22;2585;48.696;10.066;2023-04-03T09:35:03;4.60;71.10
5134;DHT22;2585;48.696;10.066;2023-04-03T09:37:52;5.00;79.20
5134;DHT22;2585;48.696;10.066;2023-04-03T09:42:54;5.40;63.30
5134;DHT22;2585;48.696;10.066;2023-04-03T09:45:31;5.40;30.20
5134;DHT22;2585;48.696;10.066;2023-04-03T09:48:20;5.60;15.70
5134;DHT22;2585;48.696;10.066;2023-04-03T09:53:33;5.60;1.00
5134;DHT22;2585;48.696;10.066;2023-04-03T09:58:46;5.70;1.00
5134;DHT22;2585;48.696;10.066;2023-04-03T10:06:40;5.30;1.00
5134;DHT22;2585;48.696;10.066;2023-04-03T10:12:11;5.50;1.00
5134;DHT22;2585;48.696;10.066;2023-04-03T10:25:54;5.30;1.00
5134;DHT22;2585;48.696;10.066;2023-04-03T10:28:48;5.20;1.00
5134;DHT22;2585;48.696;10.066;2023-04-03T10:31:37;5.00;1.00
5134;DHT22;2585;48.696;10.066;2023-04-03T10:34:35;4.60;1.00
5134;DHT22;2585;48.696;10.066;2023-04-03T10:37:35;4.90;1.00
5134;DHT22;2585;48.696;10.066;2023-04-03T10:45:46;4.70;87.80
5134;DHT22;2585;48.696;10.066;2023-04-03T10:48:24;4.70;89.00
5134;DHT22;2585;48.696;10.066;2023-04-03T10:54:05;5.20;92.40
5134;DHT22;2585;48.696;10.066;2023-04-03T10:59:33;5.70;87.50
5134;DHT22;2585;48.696;10.066;2023-04-03T11:02:28;5.60;82.50
5134;DHT22;2585;48.696;10.066;2023-04-03T11:07:39;5.10;75.90
5134;DHT22;2585;48.696;10.066;2023-04-03T11:13:21;4.90;68.90
5134;DHT22;2585;48.696;10.066;2023-04-03T11:15:51;4.80;63.40
5134;DHT22;2585;48.696;10.066;2023-04-03T11:18:25;4.70;63.80
5134;DHT22;2585;48.696;10.066;2023-04-03T11:21:01;4.60;63.80
5134;DHT22;2585;48.696;10.066;2023-04-03T11:23:36;4.60;65.00
5134;DHT22;2585;48.696;10.066;2023-04-03T11:26:21;4.70;62.80
5134;DHT22;2585;48.696;10.066;2023-04-03T11:28:53;4.80;63.00
5134;DHT22;2585;48.696;10.066;2023-04-03T11:31:29;4.80;64.70
5134;DHT22;2585;48.696;10.066;2023-04-03T11:36:48;5.40;66.90
5134;DHT22;2585;48.696;10.066;2023-04-03T11:39:30;5.70;64.30
5134;DHT22;2585;48.696;10.066;2023-04-03T11:42:42;6.00;62.60
5134;DHT22;2585;48.696;10.066;2023-04-03T11:47:49;6.20;21.80
5134;DHT22;2585;48.696;10.066;2023-04-03T12:01:10;6.80;1.00
5134;DHT22;2585;48.696;10.066;2023-04-03T12:11:15;7.50;1.60
5134;DHT22;2585;48.696;10.066;2023-04-03T12:19:02;7.20;1.00
5134;DHT22;2585;48.696;10.066;2023-04-03T12:24:28;7.00;1.00
5134;DHT22;2585;48.696;10.066;2023-04-03T12:32:54;8.10;1.00
5134;DHT22;2585;48.696;10.066;2023-04-03T12:36:12;8.10;1.00
5134;DHT22;2585;48.696;10.066;2023-04-03T12:38:54;7.80;1.00
5134;DHT22;2585;48.696;10.066;2023-04-03T12:41:50;7.50;1.00
5134;DHT22;2585;48.696;10.066;2023-04-03T12:44:33;7.30;1.00
5134;DHT22;2585;48.696;10.066;2023-04-03T12:47:34;7.60;1.00
5134;DHT22;2585;48.696;10.066;2023-04-03T12:50:05;7.30;1.00
5134;DHT22;2585;48.696;10.066;2023-04-03T12:52:45;7.00;1.00
5134;DHT22;2585;48.696;10.066;2023-04-03T12:55:17;6.60;1.00
5134;DHT22;2585;48.696;10.066;2023-04-03T12:57:44;6.70;1.00
5134;DHT22;2585;48.696;10.066;2023-04-03T13:00:27;6.80;1.00
5134;DHT22;2585;48.696;10.066;2023-04-03T13:02:54;6.90;1.00
5134;DHT22;2585;48.696;10.066;2023-04-03T13:05:23;6.90;1.00
5134;DHT22;2585;48.696;10.066;2023-04-03T13:07:58;6.90;1.00
5134;DHT22;2585;48.696;10.066;2023-04-03T13:10:25;6.80;1.00
5134;DHT22;2585;48.696;10.066;2023-04-03T13:13:08;6.70;1.00
5134;DHT22;2585;48.696;10.066;2023-04-03T13:15:44;6.60;1.00
5134;DHT22;2585;48.696;10.066;2023-04-03T13:21:00;8.40;1.00
5134;DHT22;2585;48.696;10.066;2023-04-03T13:23:28;8.70;1.00
5134;DHT22;2585;48.696;10.066;2023-04-03T13:25:56;8.00;1.00
5134;DHT22;2585;48.696;10.066;2023-04-03T13:28:27;7.70;1.00
5134;DHT22;2585;48.696;10.066;2023-04-03T13:30:58;7.80;1.00
5134;DHT22;2585;48.696;10.066;2023-04-03T13:33:28;7.50;1.00
5134;DHT22;2585;48.696;10.066;2023-04-03T13:36:06;7.60;1.00
5134;DHT22;2585;48.696;10.066;2023-04-03T13:38:35;7.50;1.00
5134;DHT22;2585;48.696;10.066;2023-04-03T13:41:21;7.30;1.00
5134;DHT22;2585;48.696;10.066;2023-04-03T13:43:49;7.10;1.00
5134;DHT22;2585;48.696;10.066;2023-04-03T13:48:49;6.20;1.00
5134;DHT22;2585;48.696;10.066;2023-04-03T13:51:27;5.90;1.00
5134;DHT22;2585;48.696;10.066;2023-04-03T13:53:58;5.70;1.00
5134;DHT22;2585;48.696;10.066;2023-04-03T13:56:36;5.80;1.00
5134;DHT22;2585;48.696;10.066;2023-04-03T14:04:26;6.40;1.00
5134;DHT22;2585;48.696;10.066;2023-04-03T14:06:54;6.50;1.00
5134;DHT22;2585;48.696;10.066;2023-04-03T14:09:24;6.50;1.00
5134;DHT22;2585;48.696;10.066;2023-04-03T14:11:54;6.50;1.00
5134;DHT22;2585;48.696;10.066;2023-04-03T14:14:26;6.70;1.00
5134;DHT22;2585;48.696;10.066;2023-04-03T14:16:55;6.60;1.00
5134;DHT22;2585;48.696;10.066;2023-04-03T14:19:26;6.70;1.00
5134;DHT22;2585;48.696;10.066;2023-04-03T14:21:54;6.20;1.00
5134;DHT22;2585;48.696;10.066;2023-04-03T14:24:22;6.00;1.00
5134;DHT22;2585;48.696;10.066;2023-04-03T14:26:51;5.80;1.00
5134;DHT22;2585;48.696;10.066;2023-04-03T14:29:20;5.70;1.00
5134;DHT22;2585;48.696;10.066;2023-04-03T14:31:47;5.60;1.00
5134;DHT22;2585;48.696;10.066;2023-04-03T14:34:17;5.50;1.00
5134;DHT22;2585;48.696;10.066;2023-04-03T14:36:45;5.60;1.00
5134;DHT22;2585;48.696;10.066;2023-04-03T14:39:17;5.50;1.00
5134;DHT22;2585;48.696;10.066;2023-04-03T14:41:45;5.40;1.00
5134;DHT22;2585;48.696;10.066;2023-04-03T14:44:12;5.60;1.00
5134;DHT22;2585;48.696;10.066;2023-04-03T14:46:42;5.70;1.00
5134;DHT22;2585;48.696;10.066;2023-04-03T14:49:27;6.10;1.00
5134;DHT22;2585;48.696;10.066;2023-04-03T14:51:57;6.60;1.00
5134;DHT22;2585;48.696;10.066;2023-04-03T14:54:24;6.80;1.00
5134;DHT22;2585;48.696;10.066;2023-04-03T14:57:12;6.90;1.00
5134;DHT22;2585;48.696;10.066;2023-04-03T14:59:41;6.60;1.00
5134;DHT22;2585;48.696;10.066;2023-04-03T15:02:34;6.40;1.00
5134;DHT22;2585;48.696;10.066;2023-04-03T15:05:06;6.00;1.00
5134;DHT22;2585;48.696;10.066;2023-04-03T15:07:45;5.70;1.00
5134;DHT22;2585;48.696;10.066;2023-04-03T15:10:18;5.50;1.00
5134;DHT22;2585;48.696;10.066;2023-04-03T15:12:45;5.40;1.00
5134;DHT22;2585;48.696;10.066;2023-04-03T15:15:13;5.40;1.00
5134;DHT22;2585;48.696;10.066;2023-04-03T15:17:41;5.40;1.00
5134;DHT22;2585;48.696;10.066;2023-04-03T15:20:19;5.50;1.00
5134;DHT22;2585;48.696;10.066;2023-04-03T15:22:46;5.30;1.00
5134;DHT22;2585;48.696;10.066;2023-04-03T15:25:13;5.20;1.00
5134;DHT22;2585;48.696;10.066;2023-04-03T15:27:40;5.10;1.00
5134;DHT22;2585;48.696;10.066;2023-04-03T15:30:11;5.00;1.00
5134;DHT22;2585;48.696;10.066;2023-04-03T15:32:39;5.00;1.00
5134;DHT22;2585;48.696;10.066;2023-04-03T15:35:06;5.00;1.00
5134;DHT22;2585;48.696;10.066;2023-04-03T15:37:33;5.20;1.00
5134;DHT22;2585;48.696;10.066;2023-04-03T15:40:00;5.30;1.00
5134;DHT22;2585;48.696;10.066;2023-04-03T15:42:26;5.60;1.00
5134;DHT22;2585;48.696;10.066;2023-04-03T15:44:53;5.70;1.00
5134;DHT22;2585;48.696;10.066;2023-04-03T15:47:20;5.90;1.00
5134;DHT22;2585;48.696;10.066;2023-04-03T15:49:47;6.00;1.00
5134;DHT22;2585;48.696;10.066;2023-04-03T15:52:14;5.90;1.00
5134;DHT22;2585;48.696;10.066;2023-04-03T15:54:40;5.60;1.00
5134;DHT22;2585;48.696;10.066;2023-04-03T15:57:07;5.60;1.00
5134;DHT22;2585;48.696;10.066;2023-04-03T15:59:34;5.40;1.00
5134;DHT22;2585;48.696;10.066;2023-04-03T16:02:04;5.30;1.00
5134;DHT22;2585;48.696;10.066;2023-04-03T16:04:33;5.20;1.00
5134;DHT22;2585;48.696;10.066;2023-04-03T16:07:04;5.30;1.00
5134;DHT22;2585;48.696;10.066;2023-04-03T16:09:32;5.20;1.00
5134;DHT22;2585;48.696;10.066;2023-04-03T16:11:59;5.00;1.00
5134;DHT22;2585;48.696;10.066;2023-04-03T16:14:27;5.00;1.00
5134;DHT22;2585;48.696;10.066;2023-04-03T16:16:55;4.70;1.00
5134;DHT22;2585;48.696;10.066;2023-04-03T16:19:22;4.60;1.00
5134;DHT22;2585;48.696;10.066;2023-04-03T16:21:53;4.60;1.00
5134;DHT22;2585;48.696;10.066;2023-04-03T16:24:21;4.80;1.00
5134;DHT22;2585;48.696;10.066;2023-04-03T16:26:47;4.90;1.00
5134;DHT22;2585;48.696;10.066;2023-04-03T16:29:14;5.00;1.00
5134;DHT22;2585;48.696;10.066;2023-04-03T16:31:41;5.10;1.00
5134;DHT22;2585;48.696;10.066;2023-04-03T16:34:08;5.10;1.00
5134;DHT22;2585;48.696;10.066;2023-04-03T16:36:35;5.20;1.00
5134;DHT22;2585;48.696;10.066;2023-04-03T16:39:04;5.10;1.00
5134;DHT22;2585;48.696;10.066;2023-04-03T16:41:31;5.10;1.00
5134;DHT22;2585;48.696;10.066;2023-04-03T16:43:58;5.00;1.00
5134;DHT22;2585;48.696;10.066;2023-04-03T16:46:25;5.00;1.00
5134;DHT22;2585;48.696;10.066;2023-04-03T16:48:52;4.90;1.00
5134;DHT22;2585;48.696;10.066;2023-04-03T16:51:19;4.80;1.00
5134;DHT22;2585;48.696;10.066;2023-04-03T16:53:46;4.70;1.00
5134;DHT22;2585;48.696;10.066;2023-04-03T16:56:12;4.50;1.00
5134;DHT22;2585;48.696;10.066;2023-04-03T16:58:39;4.50;1.00
5134;DHT22;2585;48.696;10.066;2023-04-03T17:01:17;4.60;1.00
5134;DHT22;2585;48.696;10.066;2023-04-03T17:03:45;4.60;1.00
5134;DHT22;2585;48.696;10.066;2023-04-03T17:06:16;4.60;1.00
5134;DHT22;2585;48.696;10.066;2023-04-03T17:08:45;4.60;1.00
5134;DHT22;2585;48.696;10.066;2023-04-03T17:11:12;4.60;1.00
5134;DHT22;2585;48.696;10.066;2023-04-03T17:13:39;4.50;1.00
5134;DHT22;2585;48.696;10.066;2023-04-03T17:16:09;4.50;1.00
5134;DHT22;2585;48.696;10.066;2023-04-03T17:18:37;4.50;1.00
5134;DHT22;2585;48.696;10.066;2023-04-03T17:21:05;4.40;1.00
5134;DHT22;2585;48.696;10.066;2023-04-03T17:23:34;4.40;1.00
5134;DHT22;2585;48.696;10.066;2023-04-03T17:26:03;4.30;1.00
5134;DHT22;2585;48.696;10.066;2023-04-03T17:28:30;4.20;1.00
5134;DHT22;2585;48.696;10.066;2023-04-03T17:30:59;4.10;1.00
5134;DHT22;2585;48.696;10.066;2023-04-03T17:33:27;4.00;1.00
5134;DHT22;2585;48.696;10.066;2023-04-03T17:35:57;3.90;1.00
5134;DHT22;2585;48.696;10.066;2023-04-03T17:38:25;3.80;1.00
5134;DHT22;2585;48.696;10.066;2023-04-03T17:40:54;3.80;1.00
5134;DHT22;2585;48.696;10.066;2023-04-03T17:43:21;3.90;1.00
5134;DHT22;2585;48.696;10.066;2023-04-03T17:45:48;3.80;1.00
5134;DHT22;2585;48.696;10.066;2023-04-03T17:48:15;3.80;1.00
5134;DHT22;2585;48.696;10.066;2023-04-03T17:50:42;3.70;1.00
5134;DHT22;2585;48.696;10.066;2023-04-03T17:53:09;3.70;1.00
5134;DHT22;2585;48.696;10.066;2023-04-03T17:55:38;3.70;1.00
5134;DHT22;2585;48.696;10.066;2023-04-03T17:58:05;3.70;1.00
5134;DHT22;2585;48.696;10.066;2023-04-03T18:00:32;3.70;1.00
5134;DHT22;2585;48.696;10.066;2023-04-03T18:02:59;3.70;1.00
5134;DHT22;2585;48.696;10.066;2023-04-03T18:05:27;3.60;1.00
5134;DHT22;2585;48.696;10.066;2023-04-03T18:07:55;3.60;1.00
5134;DHT22;2585;48.696;10.066;2023-04-03T18:10:23;3.60;1.00
5134;DHT22;2585;48.696;10.066;2023-04-03T18:12:51;3.60;1.00
5134;DHT22;2585;48.696;10.066;2023-04-03T18:15:19;3.50;1.00
5134;DHT22;2585;48.696;10.066;2023-04-03T18:17:46;3.50;1.00
5134;DHT22;2585;48.696;10.066;2023-04-03T18:20:15;3.50;1.00
5134;DHT22;2585;48.696;10.066;2023-04-03T18:22:43;3.40;1.00
5134;DHT22;2585;48.696;10.066;2023-04-03T18:25:10;3.40;1.00